Time;durP1;ratioP1;P1;durP2;ratioP2;P2;SDS_P1;SDS_P2;PMS_P1;PMS_P2;Temp;Humidity;BMP_temperature;BMP_pressure;BME280_temperature;BME280_humidity;BME280_pressure;Samples;Min_cycle;Max_cycle;Signal;HPM_P1;HPM_P2
2022/08/14 00:00:07;;;;;;;8.32;4.63;;;;;;;12.68;83.45;97951.25;5061437;28;20031;-66
2022/08/14 00:02:32;;;;;;;13.23;4.18;;;;;;;12.63;84.05;97971.66;5059817;28;20029;-66
2022/08/14 00:04:58;;;;;;;10.30;4.75;;;;;;;12.84;83.67;97957.66;5049252;28;20088;-66
2022/08/14 00:07:23;;;;;;;7.45;4.05;;;;;;;12.75;81.11;97944.78;5059791;28;20012;-66
2022/08/14 00:09:48;;;;;;;6.10;4.35;;;;;;;12.80;81.59;97934.94;5057273;28;20048;-66
2022/08/14 00:12:14;;;;;;;12.93;4.72;;;;;;;13.02;82.53;97941.13;5052169;28;20062;-66
2022/08/14 00:14:39;;;;;;;6.13;4.43;;;;;;;12.94;82.66;97932.59;5047687;28;20017;-66
2022/08/14 00:17:05;;;;;;;6.63;4.55;;;;;;;13.01;82.70;97923.53;5064576;28;20243;-66
2022/08/14 00:19:30;;;;;;;8.98;4.90;;;;;;;12.89;82.41;97913.44;5050806;28;20021;-66
2022/08/14 00:21:56;;;;;;;8.38;5.70;;;;;;;12.70;82.94;97928.28;5045033;28;20079;-66
2022/08/14 00:24:22;;;;;;;13.55;4.75;;;;;;;12.65;83.08;97924.97;5045863;28;20021;-66
2022/08/14 00:26:47;;;;;;;6.80;4.70;;;;;;;12.92;83.11;97928.31;5056942;28;20332;-66
2022/08/14 00:29:13;;;;;;;6.95;4.47;;;;;;;12.95;82.80;97923.72;5053707;28;20044;-66
2022/08/14 00:31:39;;;;;;;8.00;5.00;;;;;;;12.99;82.12;97908.66;5056816;28;20017;-66
2022/08/14 00:34:04;;;;;;;7.22;4.97;;;;;;;12.66;81.88;97910.81;5062652;28;20325;-66
2022/08/14 00:36:30;;;;;;;10.57;5.20;;;;;;;12.55;83.17;97907.75;5062826;28;20036;-66
2022/08/14 00:38:55;;;;;;;6.05;4.40;;;;;;;12.65;83.90;97903.84;5045870;28;20213;-66
2022/08/14 00:41:21;;;;;;;8.02;5.00;;;;;;;12.77;83.03;97892.78;5046163;28;20067;-66
2022/08/14 00:43:46;;;;;;;7.72;5.70;;;;;;;12.70;82.50;97891.31;5049413;28;20025;-66
2022/08/14 00:46:13;;;;;;;10.02;5.40;;;;;;;12.65;82.84;97885.34;5053062;28;20051;-66
2022/08/14 00:48:38;;;;;;;6.90;4.78;;;;;;;12.60;83.46;97879.38;5063067;28;20044;-66
2022/08/14 00:51:08;;;;;;;8.15;5.28;;;;;;;12.54;83.74;97879.66;5048638;28;20182;-66
2022/08/14 00:53:35;;;;;;;8.93;5.05;;;;;;;12.60;83.94;97883.81;5058636;28;20048;-66
2022/08/14 00:56:02;;;;;;;6.72;4.68;;;;;;;12.41;83.61;97878.38;5050432;28;20051;-67
2022/08/14 00:58:30;;;;;;;15.32;5.22;;;;;;;12.56;84.00;97880.44;5061266;28;20036;-66
2022/08/14 01:01:01;;;;;;;8.52;4.82;;;;;;;12.49;84.24;97876.31;5050358;28;20021;-67
2022/08/14 01:03:30;;;;;;;8.13;4.80;;;;;;;12.42;84.21;97869.56;5047294;28;20020;-66
2022/08/14 01:05:57;;;;;;;6.47;4.95;;;;;;;12.36;83.99;97864.50;5062607;28;20024;-67
2022/08/14 01:08:26;;;;;;;8.50;5.75;;;;;;;12.35;84.30;97867.22;5055566;28;20044;-67
2022/08/14 01:10:54;;;;;;;9.27;5.18;;;;;;;12.38;84.73;97875.88;5049414;28;20029;-67
2022/08/14 01:13:28;;;;;;;8.75;5.57;;;;;;;12.30;84.81;97883.22;5046416;28;20031;-66
2022/08/14 01:15:56;;;;;;;8.50;5.55;;;;;;;12.32;85.43;97867.34;5045331;28;20040;-66
2022/08/14 01:21:13;;;;;;;9.40;5.75;;;;;;;12.14;85.31;97863.63;5054482;28;20035;-67
2022/08/14 01:23:43;;;;;;;8.68;5.55;;;;;;;12.24;85.25;97867.63;5051650;28;20222;-66
2022/08/14 01:26:09;;;;;;;9.60;5.85;;;;;;;12.18;85.11;97870.47;5043999;28;20064;-66
2022/08/14 01:28:36;;;;;;;7.32;5.43;;;;;;;11.93;84.67;97859.13;5058863;28;20041;-66
2022/08/14 01:31:11;;;;;;;9.68;5.30;;;;;;;12.10;85.63;97861.16;5059006;28;20317;-66
2022/08/14 01:33:39;;;;;;;8.15;4.82;;;;;;;11.91;85.15;97855.72;5048494;28;20317;-66
2022/08/14 01:36:06;;;;;;;8.70;5.68;;;;;;;11.85;86.42;97855.06;5050706;28;20091;-66
2022/08/14 01:38:33;;;;;;;8.52;5.65;;;;;;;11.88;86.33;97850.53;5052004;28;20032;-66
2022/08/14 01:41:05;;;;;;;12.00;5.70;;;;;;;11.96;86.00;97853.75;5052426;28;20107;-66
2022/08/14 01:43:37;;;;;;;13.55;5.93;;;;;;;11.96;86.03;97852.91;5045013;28;20029;-67
2022/08/14 01:46:10;;;;;;;10.25;5.80;;;;;;;11.77;85.28;97836.88;5059558;28;20025;-67
2022/08/14 01:48:35;;;;;;;7.38;5.10;;;;;;;11.65;86.44;97842.63;5056865;28;20084;-66
2022/08/14 01:51:01;;;;;;;7.20;4.90;;;;;;;11.73;87.34;97835.28;5062644;28;20020;-67
2022/08/14 01:53:27;;;;;;;13.85;6.25;;;;;;;11.73;86.57;97835.28;5056077;28;20025;-67
2022/08/14 01:55:58;;;;;;;6.95;4.88;;;;;;;11.78;86.52;97830.72;5061692;28;20096;-67
2022/08/14 01:58:28;;;;;;;8.07;5.15;;;;;;;11.75;86.38;97828.19;5055497;28;20029;-67
2022/08/14 02:00:55;;;;;;;11.65;5.55;;;;;;;11.60;86.83;97818.16;5063470;28;20332;-67
2022/08/14 02:03:25;;;;;;;8.23;5.75;;;;;;;11.76;87.25;97824.63;5047628;28;20044;-67
2022/08/14 02:05:50;;;;;;;6.97;5.10;;;;;;;11.80;87.26;97826.22;5047802;28;20025;-67
2022/08/14 02:08:16;;;;;;;12.57;5.63;;;;;;;11.82;86.75;97824.41;5055057;28;20059;-67
2022/08/14 02:10:42;;;;;;;10.93;5.72;;;;;;;11.80;86.77;97826.22;5063526;28;20033;-67
2022/08/14 02:13:10;;;;;;;9.00;5.93;;;;;;;11.67;86.68;97818.84;5057191;28;20029;-67
2022/08/14 02:15:39;;;;;;;9.45;6.00;;;;;;;11.72;87.02;97823.03;5065487;28;20269;-67
2022/08/14 02:18:06;;;;;;;12.85;5.50;;;;;;;11.73;87.37;97830.00;5062330;28;20027;-67
2022/08/14 02:20:32;;;;;;;9.65;4.90;;;;;;;11.70;87.38;97834.50;5058108;28;20021;-67
2022/08/14 02:23:01;;;;;;;8.82;5.53;;;;;;;11.78;87.09;97843.88;5060073;28;20025;-67
2022/08/14 02:25:26;;;;;;;8.20;5.68;;;;;;;11.74;87.30;97834.34;5065041;28;20017;-67
2022/08/14 02:27:55;;;;;;;8.77;5.35;;;;;;;11.73;86.86;97832.66;5051435;28;20032;-67
2022/08/14 02:30:24;;;;;;;8.27;5.47;;;;;;;11.61;87.15;97830.41;5054113;28;20344;-67
2022/08/14 02:32:50;;;;;;;8.65;5.93;;;;;;;11.63;87.53;97833.91;5049331;28;20021;-67
2022/08/14 02:35:17;;;;;;;8.85;5.05;;;;;;;11.42;87.34;97839.03;5062681;28;20028;-67
2022/08/14 02:37:48;;;;;;;8.15;5.50;;;;;;;11.43;88.08;97846.03;5066717;28;20049;-67
2022/08/14 02:40:14;;;;;;;8.00;5.45;;;;;;;11.46;87.57;97830.09;5056632;28;20232;-67
2022/08/14 02:42:39;;;;;;;11.88;5.55;;;;;;;11.26;87.64;97838.69;5066108;28;20089;-67
2022/08/14 02:45:05;;;;;;;7.75;5.47;;;;;;;11.21;88.03;97832.75;5052510;28;20025;-67
2022/08/14 02:47:32;;;;;;;9.63;5.40;;;;;;;11.32;88.16;97827.94;5053832;28;20036;-67
2022/08/14 02:49:58;;;;;;;11.40;4.97;;;;;;;11.30;88.50;97829.81;5054676;28;20056;-67
2022/08/14 02:52:24;;;;;;;14.93;6.07;;;;;;;11.18;88.25;97829.34;5054192;28;20264;-67
2022/08/14 02:54:51;;;;;;;7.43;4.70;;;;;;;10.97;89.12;97820.41;5061723;28;20088;-67
2022/08/14 02:57:17;;;;;;;7.70;5.18;;;;;;;11.09;89.22;97824.38;5055057;28;20335;-67
2022/08/14 02:59:43;;;;;;;9.02;5.13;;;;;;;11.02;89.28;97812.34;5054115;28;20104;-67
2022/08/14 03:02:08;;;;;;;10.45;5.50;;;;;;;11.14;89.40;97828.63;5057982;28;20025;-67
2022/08/14 03:04:34;;;;;;;10.00;4.72;;;;;;;11.13;89.35;97831.28;5048610;28;20359;-67
2022/08/14 03:07:00;;;;;;;7.97;4.95;;;;;;;10.99;88.85;97818.59;5055214;28;20028;-67
2022/08/14 03:09:26;;;;;;;8.23;4.70;;;;;;;10.85;90.01;97816.41;5046514;28;20029;-67
2022/08/14 03:11:52;;;;;;;12.38;4.80;;;;;;;10.89;90.28;97814.56;5046461;28;20373;-67
2022/08/14 03:14:19;;;;;;;8.38;4.80;;;;;;;10.98;90.82;97806.31;5052076;28;20205;-67
2022/08/14 03:16:49;;;;;;;7.43;4.80;;;;;;;11.03;89.67;97796.50;5054287;28;20028;-67
2022/08/14 03:19:14;;;;;;;6.35;4.78;;;;;;;11.06;89.50;97798.16;5053685;28;20347;-67
2022/08/14 03:21:40;;;;;;;7.70;5.20;;;;;;;11.04;89.54;97798.22;5062859;28;20024;-67
2022/08/14 03:24:12;;;;;;;7.97;5.00;;;;;;;11.11;89.59;97790.97;5047390;28;20096;-67
2022/08/14 03:26:43;;;;;;;5.75;4.60;;;;;;;11.16;89.67;97789.03;5051490;28;20209;-67
2022/08/14 03:29:11;;;;;;;8.27;4.18;;;;;;;11.01;89.42;97779.03;5058834;28;20064;-67
2022/08/14 03:31:37;;;;;;;8.57;5.10;;;;;;;10.98;89.78;97777.34;5051503;28;20021;-67
2022/08/14 03:34:03;;;;;;;6.07;3.88;;;;;;;11.09;89.96;97783.13;5062926;28;20092;-67
2022/08/14 03:36:31;;;;;;;9.25;5.07;;;;;;;11.14;89.63;97783.84;5049036;28;20302;-67
2022/08/14 03:38:58;;;;;;;7.78;4.60;;;;;;;11.00;89.65;97783.44;5049992;28;20025;-67
2022/08/14 03:41:25;;;;;;;6.72;4.45;;;;;;;10.98;89.68;97791.38;5050151;28;20336;-67
2022/08/14 03:43:57;;;;;;;7.15;4.72;;;;;;;11.00;90.22;97788.72;5053452;28;20067;-67
2022/08/14 03:46:25;;;;;;;5.20;4.35;;;;;;;10.91;90.51;97794.28;5051968;28;20036;-67
2022/08/14 03:48:53;;;;;;;6.85;4.55;;;;;;;10.86;90.14;97796.22;5060098;28;20212;-67
2022/08/14 03:51:19;;;;;;;7.28;4.38;;;;;;;10.81;90.24;97792.88;5054814;28;20226;-67
2022/08/14 03:53:46;;;;;;;5.38;4.22;;;;;;;10.93;90.41;97795.97;5054485;28;20056;-67
2022/08/14 03:56:13;;;;;;;5.75;4.30;;;;;;;10.94;89.86;97799.44;5056989;28;20021;-67
2022/08/14 03:58:41;;;;;;;5.47;4.00;;;;;;;11.00;90.30;97804.50;5055788;28;20021;-67
2022/08/14 04:01:08;;;;;;;12.35;4.40;;;;;;;10.78;89.88;97787.72;5062724;28;20084;-67
2022/08/14 04:03:34;;;;;;;9.30;4.38;;;;;;;10.65;90.47;97789.03;5057911;28;20052;-67
2022/08/14 04:06:00;;;;;;;8.45;4.88;;;;;;;10.61;91.66;97784.78;5047751;28;20093;-67
2022/08/14 04:08:26;;;;;;;13.55;4.95;;;;;;;10.64;91.43;97789.97;5045362;28;20025;-67
2022/08/14 04:10:51;;;;;;;6.70;4.00;;;;;;;10.69;92.15;97788.88;5048011;28;20375;-67
2022/08/14 04:13:17;;;;;;;7.93;4.00;;;;;;;10.83;90.96;97793.69;5047551;28;20021;-67
2022/08/14 04:15:44;;;;;;;6.90;4.15;;;;;;;10.81;90.55;97792.88;5064734;28;20035;-67
2022/08/14 04:18:10;;;;;;;5.22;4.20;;;;;;;10.94;90.26;97799.44;5053937;28;20049;-67
2022/08/14 04:20:37;;;;;;;11.57;4.10;;;;;;;10.81;89.90;97792.88;5051349;28;20024;-67
2022/08/14 04:23:04;;;;;;;6.70;4.05;;;;;;;10.84;90.35;97787.50;5046966;28;20025;-67
2022/08/14 04:25:32;;;;;;;12.50;4.50;;;;;;;10.87;90.39;97800.56;5064387;28;20067;-67
2022/08/14 04:28:10;;;;;;;5.25;3.80;;;;;;;10.94;90.13;97804.72;5062960;28;20088;-67
2022/08/14 04:30:38;;;;;;;4.78;3.88;;;;;;;10.88;90.28;97800.53;5059139;28;20025;-67
2022/08/14 04:33:06;;;;;;;5.65;4.20;;;;;;;10.96;90.34;97800.25;5057683;28;20029;-67
2022/08/14 04:35:31;;;;;;;6.47;3.78;;;;;;;11.04;89.76;97806.13;5062909;28;20045;-67
2022/08/14 04:43:39;;;;;;;6.50;4.45;;;;;;;11.20;89.57;97815.19;5052431;28;20040;-67
2022/08/14 04:46:07;;;;;;;8.95;3.78;;;;;;;11.20;89.35;97804.66;5047605;28;20120;-67
2022/08/14 04:48:32;;;;;;;6.68;4.25;;;;;;;11.21;89.43;97809.03;5045697;28;20044;-67
2022/08/14 04:50:58;;;;;;;7.18;4.18;;;;;;;11.34;89.22;97805.06;5051457;28;20047;-67
2022/08/14 04:53:27;;;;;;;7.13;3.88;;;;;;;11.38;88.89;97811.94;5051093;28;20221;-67
2022/08/14 04:55:54;;;;;;;5.80;3.72;;;;;;;11.37;88.99;97798.81;5045672;28;20100;-67
2022/08/14 04:58:23;;;;;;;6.47;4.05;;;;;;;11.41;88.99;97801.28;5062114;28;20025;-67
2022/08/14 05:00:50;;;;;;;5.43;3.65;;;;;;;11.49;88.70;97793.97;5049068;28;20025;-67
2022/08/14 05:03:19;;;;;;;5.10;4.22;;;;;;;11.64;87.94;97798.72;5055889;28;20021;-67
2022/08/14 05:05:46;;;;;;;6.20;4.22;;;;;;;11.75;87.77;97796.56;5056746;28;20032;-67
2022/08/14 05:08:12;;;;;;;7.10;4.25;;;;;;;11.78;86.99;97796.44;5051524;28;20025;-67
2022/08/14 05:10:44;;;;;;;9.15;4.60;;;;;;;11.80;87.20;97799.84;5045431;28;20198;-67
2022/08/14 05:13:12;;;;;;;4.65;3.83;;;;;;;11.79;87.19;97798.16;5045374;28;20094;-67
2022/08/14 05:15:39;;;;;;;5.10;4.10;;;;;;;11.89;86.91;97802.16;5044497;28;20033;-67
2022/08/14 05:18:12;;;;;;;5.22;3.70;;;;;;;12.62;86.07;97802.75;5052261;28;20217;-67
2022/08/14 05:20:47;;;;;;;;;;;;;;;14.14;80.68;97809.31;5050480;28;20033;-67
2022/08/14 05:23:15;;;;;;;6.88;3.58;;;;;;;15.19;75.52;97798.84;5061838;28;19909;-67
2022/08/14 05:25:41;;;;;;;3.67;3.00;;;;;;;16.01;71.16;97790.91;5054380;28;20047;-67
2022/08/14 05:28:19;;;;;;;4.80;3.17;;;;;;;16.95;68.36;97797.09;5046998;28;20083;-67
2022/08/14 05:30:51;;;;;;;5.15;2.90;;;;;;;17.51;65.16;97791.13;5053395;28;20025;-67
2022/08/14 05:33:19;;;;;;;3.80;3.03;;;;;;;17.58;64.44;97789.81;5048144;28;20037;-67
2022/08/14 05:35:46;;;;;;;3.65;2.90;;;;;;;17.96;64.11;97783.00;5061718;28;20029;-67
2022/08/14 05:38:18;;;;;;;5.82;2.47;;;;;;;18.72;61.12;97780.72;5046053;28;20269;-67
2022/08/14 05:40:45;;;;;;;4.28;3.00;;;;;;;19.17;60.48;97771.47;5053660;28;20360;-66
2022/08/14 05:43:11;;;;;;;4.38;3.30;;;;;;;19.95;58.85;97787.41;5045216;28;20309;-66
2022/08/14 05:45:36;;;;;;;8.45;3.13;;;;;;;20.54;56.89;97786.69;5046143;28;20032;-66
2022/08/14 05:48:03;;;;;;;7.60;3.05;;;;;;;21.12;55.11;97784.16;5045468;28;20021;-66
2022/08/14 05:50:28;;;;;;;5.40;3.10;;;;;;;21.44;54.66;97799.59;5053188;28;20036;-66
2022/08/14 05:52:54;;;;;;;4.63;3.10;;;;;;;21.68;53.40;97792.38;5043919;28;20033;-66
2022/08/14 05:55:20;;;;;;;4.13;3.30;;;;;;;22.01;53.88;97800.50;5055121;28;20339;-67
2022/08/14 05:57:48;;;;;;;6.85;3.20;;;;;;;22.82;52.63;97810.03;5045668;28;20060;-66
2022/08/14 06:00:16;;;;;;;8.60;3.10;;;;;;;22.49;52.47;97800.19;5059015;28;20021;-67
2022/08/14 06:02:41;;;;;;;7.32;3.38;;;;;;;22.24;53.39;97781.63;5055260;28;20049;-67
2022/08/14 06:05:07;;;;;;;5.15;3.58;;;;;;;22.60;52.71;97783.25;5043645;28;20079;-67
2022/08/14 06:07:35;;;;;;;4.50;3.13;;;;;;;22.72;53.52;97795.66;5055627;28;20024;-66
2022/08/14 06:10:02;;;;;;;4.72;3.30;;;;;;;22.56;53.11;97771.88;5053184;28;20024;-67
2022/08/14 06:12:28;;;;;;;5.95;3.00;;;;;;;23.39;51.45;97778.41;5060773;28;20220;-67
2022/08/14 06:14:53;;;;;;;4.82;3.05;;;;;;;24.09;49.97;97766.03;5049369;28;20025;-67
2022/08/14 06:17:18;;;;;;;4.47;2.70;;;;;;;24.32;50.17;97781.00;5051083;28;20332;-67
2022/08/14 06:19:44;;;;;;;6.07;3.88;;;;;;;24.92;48.17;97770.19;5045292;28;20052;-67
2022/08/14 06:22:09;;;;;;;4.38;3.30;;;;;;;26.03;47.09;97790.34;5043720;28;20069;-67
2022/08/14 06:24:34;;;;;;;4.80;3.33;;;;;;;26.02;46.66;97777.84;5054333;28;20025;-67
2022/08/14 06:27:01;;;;;;;4.30;3.17;;;;;;;26.02;47.12;97772.47;5045549;28;20028;-67
2022/08/14 06:29:26;;;;;;;6.75;3.47;;;;;;;26.36;46.33;97769.09;5044452;28;20045;-67
2022/08/14 06:31:51;;;;;;;7.05;3.72;;;;;;;27.32;45.37;97782.94;5048163;28;20128;-66
2022/08/14 06:34:17;;;;;;;8.07;3.50;;;;;;;28.34;43.28;97782.28;5053175;28;20028;-67
2022/08/14 06:36:42;;;;;;;5.82;3.22;;;;;;;28.65;42.79;97784.34;5056663;28;20028;-67
2022/08/14 06:39:07;;;;;;;4.68;3.17;;;;;;;29.04;42.05;97777.41;5047522;28;20032;-66
2022/08/14 06:41:33;;;;;;;5.90;3.78;;;;;;;28.34;42.13;97749.78;5043169;28;20107;-66
2022/08/14 06:43:58;;;;;;;7.28;3.70;;;;;;;26.99;45.31;97718.78;5043382;28;20021;-66
2022/08/14 06:46:27;;;;;;;9.35;4.28;;;;;;;26.48;47.85;97715.78;5043326;28;20030;-66
2022/08/14 06:48:52;;;;;;;6.60;4.20;;;;;;;28.14;44.07;97727.53;5046926;28;20229;-66
2022/08/14 06:51:17;;;;;;;6.22;4.70;;;;;;;28.86;42.94;97740.59;5046837;28;20021;-66
2022/08/14 06:53:43;;;;;;;7.35;4.55;;;;;;;28.66;43.78;97729.16;5046807;28;20329;-66
2022/08/14 06:56:08;;;;;;;6.75;4.80;;;;;;;29.09;43.95;97730.84;5046753;28;20028;-66
2022/08/14 06:58:33;;;;;;;9.88;5.13;;;;;;;29.51;41.62;97719.91;5046739;28;20044;-66
2022/08/14 07:06:29;;;;;;;9.93;5.25;;;;;;;30.78;38.76;97707.13;5062927;28;20024;-66
2022/08/14 07:08:54;;;;;;;9.45;5.57;;;;;;;30.56;38.56;97702.44;5046534;28;20028;-66
2022/08/14 07:11:20;;;;;;;11.98;5.47;;;;;;;30.03;39.34;97699.53;5046457;28;20022;-66
2022/08/14 07:13:45;;;;;;;11.98;5.53;;;;;;;30.32;39.41;97711.53;5046429;28;20025;-66
2022/08/14 07:16:11;;;;;;;8.18;5.03;;;;;;;30.07;40.30;97717.16;5052305;28;20029;-66
2022/08/14 07:18:38;;;;;;;10.55;5.40;;;;;;;31.47;38.34;97738.84;5064085;28;20054;-66
2022/08/14 07:21:05;;;;;;;12.40;5.07;;;;;;;31.79;36.77;97735.88;5065639;28;20029;-66
2022/08/14 07:23:31;;;;;;;7.18;5.15;;;;;;;31.36;37.18;97734.66;5065663;28;20078;-66
2022/08/14 07:25:58;;;;;;;9.85;5.30;;;;;;;31.33;37.23;97729.59;5064253;28;20237;-66
2022/08/14 07:28:26;;;;;;;11.95;4.75;;;;;;;31.17;37.00;97721.50;5053106;28;20025;-66
2022/08/14 07:30:56;;;;;;;8.10;5.00;;;;;;;31.30;37.81;97721.78;5065568;28;20074;-66
2022/08/14 07:33:23;;;;;;;7.80;4.93;;;;;;;32.67;35.34;97729.50;5051551;28;20040;-66
2022/08/14 07:35:48;;;;;;;7.32;4.88;;;;;;;33.41;33.47;97736.56;5046041;28;20033;-66
2022/08/14 07:38:21;;;;;;;8.20;4.88;;;;;;;33.85;33.21;97734.50;5052061;28;20045;-66
2022/08/14 07:40:50;;;;;;;10.95;4.63;;;;;;;33.49;32.67;97717.31;5046988;28;20029;-66
2022/08/14 07:43:16;;;;;;;7.60;5.28;;;;;;;33.03;34.17;97723.09;5046228;28;20025;-66
2022/08/14 07:45:42;;;;;;;8.05;5.18;;;;;;;32.83;35.01;97724.72;5051401;28;20025;-66
2022/08/14 07:48:08;;;;;;;9.18;4.97;;;;;;;32.59;33.60;97714.09;5049317;28;20036;-66
2022/08/14 07:50:34;;;;;;;8.05;4.65;;;;;;;32.85;32.75;97717.22;5050088;28;20025;-66
2022/08/14 07:53:00;;;;;;;8.90;5.05;;;;;;;33.27;33.20;97727.34;5057050;28;20033;-66
2022/08/14 07:55:26;;;;;;;5.70;3.97;;;;;;;33.97;31.49;97727.50;5057029;28;20025;-66
2022/08/14 07:57:53;;;;;;;7.45;4.60;;;;;;;33.80;32.09;97734.22;5051740;28;20017;-66
2022/08/14 08:00:21;;;;;;;11.00;4.38;;;;;;;33.67;32.48;97731.38;5063635;28;20044;-66
2022/08/14 08:02:50;;;;;;;10.57;4.47;;;;;;;34.01;32.06;97723.31;5053755;28;20029;-66
2022/08/14 08:05:18;;;;;;;5.85;4.50;;;;;;;34.47;30.77;97729.97;5045756;28;20039;-66
2022/08/14 08:07:45;;;;;;;8.23;4.22;;;;;;;34.19;31.60;97721.75;5052779;28;20029;-66
2022/08/14 08:10:30;;;;;;;6.47;4.18;;;;;;;34.35;30.34;97726.06;5059571;28;20017;-66
2022/08/14 08:12:59;;;;;;;7.05;3.97;;;;;;;33.73;30.85;97719.66;5046398;28;20028;-66
2022/08/14 08:15:27;;;;;;;5.78;3.83;;;;;;;34.17;29.77;97720.28;5049403;28;20032;-66
2022/08/14 08:17:53;;;;;;;12.32;4.43;;;;;;;34.22;30.39;97731.44;5047358;28;20169;-66
2022/08/14 08:20:22;;;;;;;9.18;4.53;;;;;;;34.01;30.23;97721.41;5055608;28;20037;-67
2022/08/14 08:22:49;;;;;;;7.22;4.15;;;;;;;34.05;30.88;97735.53;5053645;28;20021;-67
2022/08/14 08:25:16;;;;;;;8.52;4.50;;;;;;;33.89;30.40;97719.44;5061874;28;20025;-67
2022/08/14 08:27:41;;;;;;;7.00;4.38;;;;;;;34.44;30.06;97713.97;5050426;28;20260;-67
2022/08/14 08:30:09;;;;;;;9.75;4.03;;;;;;;33.86;30.05;97681.56;5044878;28;20045;-66
2022/08/14 08:32:42;;;;;;;6.68;4.00;;;;;;;34.76;29.12;97691.41;5044977;28;20039;-66
2022/08/14 08:35:19;;;;;;;7.88;3.80;;;;;;;34.44;29.59;97692.09;5061003;28;20033;-66
2022/08/14 08:37:46;;;;;;;4.93;3.90;;;;;;;34.40;28.96;97699.88;5048602;28;20228;-67
2022/08/14 08:40:30;;;;;;;5.57;3.83;;;;;;;33.88;28.92;97702.19;5062309;28;20032;-66
2022/08/14 08:42:56;;;;;;;5.78;3.90;;;;;;;34.08;29.58;97702.34;5053978;28;20376;-67
2022/08/14 08:45:22;;;;;;;7.80;4.30;;;;;;;34.07;29.00;97692.47;5061342;28;20067;-66
2022/08/14 08:47:49;;;;;;;5.90;3.85;;;;;;;34.15;28.74;97697.78;5059450;28;20021;-66
2022/08/14 08:50:33;;;;;;;8.85;3.75;;;;;;;33.96;28.77;97703.94;5049832;28;20313;-66
2022/08/14 08:53:01;;;;;;;10.40;3.78;;;;;;;33.82;29.55;97702.13;5055133;28;20021;-66
2022/08/14 08:55:38;;;;;;;5.88;3.78;;;;;;;34.57;28.65;97735.91;5059356;28;20024;-66
2022/08/14 08:58:09;;;;;;;4.80;3.35;;;;;;;33.41;27.98;97720.19;5045902;28;20021;-66
2022/08/14 09:00:36;;;;;;;;;;;;;;;33.05;28.85;97722.91;5044970;28;20244;-66
2022/08/14 09:03:12;;;;;;;7.03;3.63;;;;;;;33.45;28.51;97721.50;5052126;28;19916;-66
2022/08/14 09:05:48;;;;;;;7.38;3.63;;;;;;;32.97;28.80;97723.84;5044634;28;20031;-66
2022/08/14 09:08:17;;;;;;;5.18;3.55;;;;;;;33.62;28.50;97733.84;5051445;28;20037;-66
2022/08/14 09:10:43;;;;;;;6.20;3.53;;;;;;;34.03;27.91;97723.94;5050968;28;20052;-66
2022/08/14 09:13:12;;;;;;;7.20;3.60;;;;;;;33.94;28.17;97727.88;5044297;28;20088;-66
2022/08/14 09:15:44;;;;;;;7.90;3.90;;;;;;;34.11;28.00;97718.34;5046423;28;20064;-66
2022/08/14 09:18:10;;;;;;;6.80;4.30;;;;;;;34.06;28.13;97708.00;5051898;28;20232;-66
2022/08/14 09:20:41;;;;;;;6.95;4.00;;;;;;;34.27;27.58;97691.56;5053560;28;20047;-66
2022/08/14 09:23:10;;;;;;;7.90;3.75;;;;;;;34.05;27.48;97694.56;5063544;28;20024;-66
2022/08/14 09:25:36;;;;;;;7.93;3.92;;;;;;;34.14;27.01;97690.63;5063497;28;20028;-66
2022/08/14 09:28:03;;;;;;;5.72;4.20;;;;;;;33.86;27.49;97682.44;5048934;28;20066;-66
2022/08/14 09:30:31;;;;;;;7.57;3.60;;;;;;;33.87;27.17;97677.81;5053246;28;20111;-66
2022/08/14 09:33:19;;;;;;;5.13;3.10;;;;;;;34.11;26.74;97682.84;5063441;28;20048;-66
2022/08/14 09:36:11;;;;;;;6.75;3.42;;;;;;;34.10;27.37;97662.03;5035450;28;20045;-66
2022/08/14 09:39:01;;;;;;;5.05;3.70;;;;;;;33.67;27.80;97671.31;5043939;28;20387;-66
2022/08/14 09:41:46;;;;;;;7.30;3.95;;;;;;;33.82;27.82;97669.34;5043836;28;20036;-67
2022/08/14 09:44:36;;;;;;;5.50;3.47;;;;;;;34.03;28.03;97674.78;5043912;28;20347;-68
2022/08/14 09:47:01;;;;;;;6.25;3.78;;;;;;;35.01;26.65;97681.66;5050576;28;20070;-68
2022/08/14 09:49:32;;;;;;;4.55;3.60;;;;;;;35.16;26.17;97673.28;5044952;28;20021;-68
2022/08/14 09:52:09;;;;;;;9.13;4.20;;;;;;;35.03;26.12;97641.28;5043820;28;20025;-68
2022/08/14 09:54:44;;;;;;;10.52;3.45;;;;;;;35.59;26.08;97650.84;5043784;28;20029;-68
2022/08/14 09:57:22;;;;;;;8.45;3.65;;;;;;;35.04;26.50;97650.34;5043755;28;20221;-67
2022/08/14 09:59:48;;;;;;;5.93;3.70;;;;;;;34.52;26.22;97624.44;5045132;28;20034;-67
2022/08/14 10:02:22;;;;;;;5.80;3.40;;;;;;;34.79;26.71;97647.28;5043640;28;20091;-67
2022/08/14 10:05:00;;;;;;;6.20;3.45;;;;;;;35.09;25.69;97637.72;5055854;28;20052;-67
2022/08/14 10:07:30;;;;;;;8.23;3.60;;;;;;;34.85;25.64;97630.06;5043605;28;20045;-67
2022/08/14 10:09:55;;;;;;;4.13;3.50;;;;;;;33.21;26.75;97599.09;5044701;28;20021;-67
2022/08/14 10:12:21;;;;;;;6.72;3.50;;;;;;;33.10;27.34;97593.09;5044783;28;20056;-67
2022/08/14 10:14:46;;;;;;;5.28;3.40;;;;;;;33.45;26.93;97607.75;5043666;28;20025;-67
2022/08/14 10:17:25;;;;;;;7.18;3.70;;;;;;;33.98;26.59;97603.53;5043636;28;20061;-69
2022/08/14 10:19:51;;;;;;;4.40;3.40;;;;;;;34.19;26.25;97606.16;5044309;28;20213;-69
2022/08/14 10:22:24;;;;;;;5.38;3.75;;;;;;;34.36;25.79;97597.47;5055462;28;20097;-69
2022/08/14 10:24:49;;;;;;;6.38;3.45;;;;;;;34.93;25.28;97594.34;5049927;28;20025;-69
2022/08/14 10:27:24;;;;;;;4.28;3.67;;;;;;;33.92;26.47;97577.03;5073412;28;20060;-69
2022/08/14 10:29:53;;;;;;;4.75;3.00;;;;;;;33.60;26.38;97577.63;5070421;28;20355;-69
2022/08/14 10:32:21;;;;;;;8.65;3.60;;;;;;;33.77;25.91;97573.53;5085792;28;20021;-69
2022/08/14 10:34:49;;;;;;;4.10;3.30;;;;;;;33.62;26.37;97570.91;5076027;28;20028;-69
2022/08/14 10:37:16;;;;;;;4.88;3.60;;;;;;;34.06;25.72;97567.88;5064601;28;20020;-69
2022/08/14 10:39:45;;;;;;;6.10;3.58;;;;;;;34.10;25.33;97580.09;5062049;28;20048;-69
2022/08/14 10:42:12;;;;;;;5.85;3.40;;;;;;;34.09;25.18;97568.31;5047160;28;20116;-69
2022/08/14 10:44:40;;;;;;;4.88;3.33;;;;;;;34.41;24.89;97583.19;5067251;28;20028;-69
2022/08/14 10:47:09;;;;;;;9.63;3.70;;;;;;;33.70;25.27;97561.75;5065934;28;20055;-70
2022/08/14 10:49:48;;;;;;;9.23;3.42;;;;;;;34.00;25.40;97563.22;5065378;28;20336;-69
2022/08/14 10:52:23;;;;;;;8.68;2.92;;;;;;;34.43;24.86;97575.66;5056004;28;20048;-69
2022/08/14 10:54:50;;;;;;;5.57;3.40;;;;;;;33.92;24.90;97572.44;5066073;28;20024;-69
2022/08/14 10:57:20;;;;;;;10.50;3.70;;;;;;;33.26;26.75;97555.69;5065624;28;20024;-69
2022/08/14 11:00:13;;;;;;;10.27;3.17;;;;;;;32.91;25.63;97561.06;5056300;28;20029;-69
2022/08/14 11:02:40;;;;;;;6.05;3.47;;;;;;;32.71;26.64;97559.97;5046514;28;20332;-69
2022/08/14 11:05:06;;;;;;;5.50;3.63;;;;;;;32.88;26.65;97568.78;5046862;28;20269;-69
2022/08/14 11:07:33;;;;;;;4.68;3.50;;;;;;;32.94;27.15;97566.09;5046612;28;20021;-69
2022/08/14 11:10:03;;;;;;;4.63;3.40;;;;;;;33.38;26.37;97568.66;5046676;28;20021;-69
2022/08/14 11:12:49;;;;;;;6.40;3.15;;;;;;;33.86;26.06;97588.72;5046632;28;20017;-69
2022/08/14 11:15:18;;;;;;;6.88;3.17;;;;;;;33.91;26.05;97570.72;5046415;28;20033;-69
2022/08/14 11:17:47;;;;;;;4.70;3.47;;;;;;;33.93;26.20;97567.78;5059767;28;20029;-68
2022/08/14 11:20:15;;;;;;;6.32;3.40;;;;;;;33.45;25.23;97560.50;5066540;28;20233;-68
2022/08/14 11:22:41;;;;;;;4.75;3.00;;;;;;;33.15;25.89;97550.78;5066154;28;20111;-69
2022/08/14 11:25:10;;;;;;;6.28;3.50;;;;;;;33.77;24.78;97571.66;5066222;28;20320;-69
2022/08/14 11:27:37;;;;;;;6.95;3.00;;;;;;;33.55;25.66;97559.13;5066129;28;20020;-69
2022/08/14 11:30:10;;;;;;;6.50;3.58;;;;;;;33.53;24.92;97549.47;5065988;28;20068;-69
2022/08/14 11:32:38;;;;;;;6.40;3.22;;;;;;;33.13;25.60;97549.09;5065500;28;20288;-69
2022/08/14 11:35:04;;;;;;;6.30;3.58;;;;;;;32.95;26.50;97545.16;5066053;28;20104;-69
2022/08/14 11:37:33;;;;;;;5.45;3.08;;;;;;;32.89;26.04;97545.94;5066059;28;20020;-68
2022/08/14 11:40:02;;;;;;;6.80;3.60;;;;;;;32.87;27.22;97532.50;5048095;28;20213;-68
2022/08/14 11:42:29;;;;;;;4.88;3.63;;;;;;;32.44;26.69;97519.88;5046099;28;20066;-69
2022/08/14 11:45:02;;;;;;;5.72;3.33;;;;;;;32.85;27.52;97529.13;5045868;28;20391;-69
2022/08/14 11:47:31;;;;;;;4.40;3.40;;;;;;;32.93;27.24;97526.25;5045910;28;20025;-69
2022/08/14 11:49:58;;;;;;;6.65;3.67;;;;;;;32.54;27.52;97519.53;5046050;28;20021;-68